createdAt,value
2019-01-28T00:02:00.965Z,100.00
2019-01-28T00:04:50.734Z,100.00
2019-01-28T00:07:40.831Z,100.00
2019-01-28T00:10:30.583Z,100.00
2019-01-28T00:13:20.332Z,100.00
2019-01-28T00:16:10.041Z,100.00
2019-01-28T00:18:59.798Z,100.00
2019-01-28T00:21:49.487Z,100.00
2019-01-28T00:24:39.220Z,100.00
2019-01-28T00:27:28.969Z,100.00
2019-01-28T00:30:18.746Z,100.00
2019-01-28T00:33:01.265Z,100.00
2019-01-28T00:35:50.991Z,100.00
2019-01-28T00:39:36.218Z,100.00
2019-01-28T00:42:25.893Z,100.00
2019-01-28T00:45:15.762Z,100.00
2019-01-28T00:48:26.544Z,100.00
2019-01-28T00:51:16.216Z,100.00
2019-01-28T00:54:06.081Z,100.00
2019-01-28T00:56:55.794Z,100.00
2019-01-28T01:02:41.491Z,100.00
2019-01-28T01:05:31.248Z,100.00
2019-01-28T01:11:17.710Z,100.00
2019-01-28T01:14:07.474Z,100.00
2019-01-28T01:16:57.243Z,100.00
2019-01-28T01:19:46.928Z,100.00
2019-01-28T01:22:54.421Z,100.00
2019-01-28T01:25:44.075Z,100.00
2019-01-28T01:28:33.796Z,100.00
2019-01-28T01:31:23.559Z,100.00
2019-01-28T01:34:05.661Z,100.00
2019-01-28T01:36:55.265Z,100.00
2019-01-28T01:39:44.886Z,100.00
2019-01-28T01:42:34.629Z,100.00
2019-01-28T01:45:24.359Z,100.00
2019-01-28T01:48:07.740Z,100.00
2019-01-28T01:50:57.449Z,100.00
2019-01-28T01:53:47.130Z,100.00
2019-01-28T01:56:36.762Z,100.00
2019-01-28T02:00:01.646Z,100.00
2019-01-28T02:02:51.409Z,100.00
2019-01-28T02:05:41.397Z,100.00
2019-01-28T02:08:31.002Z,100.00
2019-01-28T02:11:20.743Z,100.00
2019-01-28T02:14:10.417Z,100.00
2019-01-28T02:17:19.018Z,100.00
2019-01-28T02:20:09.106Z,100.00
2019-01-28T02:22:58.811Z,100.00
2019-01-28T02:25:48.609Z,100.00
2019-01-28T02:28:38.688Z,100.00
2019-01-28T02:34:15.734Z,100.00
2019-01-28T02:37:05.366Z,100.00
2019-01-28T02:39:55.022Z,100.00
2019-01-28T02:42:44.765Z,100.00
2019-01-28T02:45:34.401Z,100.00
2019-01-28T02:48:24.722Z,100.00
2019-01-28T02:51:14.475Z,100.00
2019-01-28T02:54:04.316Z,100.00
2019-01-28T02:56:54.292Z,100.00
2019-01-28T02:59:43.984Z,100.00
2019-01-28T03:02:33.751Z,100.00
2019-01-28T03:05:25.079Z,100.00
2019-01-28T03:08:14.714Z,100.00
2019-01-28T03:11:04.343Z,100.00
2019-01-28T03:14:12.927Z,100.00
2019-01-28T03:17:21.383Z,100.00
2019-01-28T03:20:32.063Z,100.00
2019-01-28T03:23:23.171Z,100.00
2019-01-28T03:26:12.844Z,100.00
2019-01-28T03:29:02.471Z,100.00
2019-01-28T03:31:52.113Z,100.00
2019-01-28T03:34:41.862Z,100.00
2019-01-28T03:37:31.601Z,100.00
2019-01-28T03:40:21.515Z,100.00
2019-01-28T03:43:11.222Z,100.00
2019-01-28T03:46:00.877Z,100.00
2019-01-28T03:48:50.487Z,100.00
2019-01-28T03:54:50.724Z,100.00
2019-01-28T03:57:40.347Z,100.00
2019-01-28T04:00:30.041Z,100.00
2019-01-28T04:03:19.744Z,100.00
2019-01-28T04:06:09.417Z,100.00
2019-01-28T04:08:59.107Z,100.00
2019-01-28T04:11:48.764Z,100.00
2019-01-28T04:14:38.536Z,100.00
2019-01-28T04:17:28.222Z,100.00
2019-01-28T04:23:22.294Z,100.00
2019-01-28T04:26:12.007Z,100.00
2019-01-28T04:29:01.920Z,100.00
2019-01-28T04:31:52.093Z,100.00
2019-01-28T04:34:41.873Z,100.00
2019-01-28T04:37:31.536Z,100.00
2019-01-28T04:40:21.199Z,100.00
2019-01-28T04:43:10.804Z,100.00
2019-01-28T04:46:00.465Z,100.00
2019-01-28T04:48:50.370Z,100.00
2019-01-28T04:51:40.137Z,100.00
2019-01-28T04:54:29.812Z,100.00
2019-01-28T04:57:19.480Z,100.00
2019-01-28T05:00:31.909Z,100.00
2019-01-28T05:03:21.554Z,100.00
2019-01-28T05:06:11.248Z,100.00
2019-01-28T05:11:46.901Z,100.00
2019-01-28T05:14:36.658Z,100.00
2019-01-28T05:17:26.358Z,100.00
2019-01-28T05:20:37.361Z,100.00
2019-01-28T05:23:27.004Z,100.00
2019-01-28T05:26:16.709Z,100.00
2019-01-28T05:29:06.374Z,100.00
2019-01-28T05:31:56.050Z,100.00
2019-01-28T05:34:45.727Z,100.00
2019-01-28T05:37:35.469Z,100.00
2019-01-28T05:40:25.399Z,100.00
2019-01-28T05:43:15.082Z,100.00
2019-01-28T05:46:05.386Z,100.00
2019-01-28T05:49:14.580Z,100.00
2019-01-28T05:52:04.278Z,100.00
2019-01-28T05:54:53.881Z,100.00
2019-01-28T05:57:43.507Z,100.00
2019-01-28T06:00:52.272Z,100.00
2019-01-28T06:03:41.924Z,100.00
2019-01-28T06:07:08.795Z,100.00
2019-01-28T06:09:58.691Z,100.00
2019-01-28T06:12:48.402Z,100.00
2019-01-28T06:15:38.119Z,100.00
2019-01-28T06:18:27.784Z,100.00
2019-01-28T06:21:17.571Z,100.00
2019-01-28T06:24:07.237Z,100.00
2019-01-28T06:26:57.359Z,100.00
2019-01-28T06:29:47.119Z,100.00
2019-01-28T06:32:29.717Z,100.00
2019-01-28T06:38:29.791Z,100.00
2019-01-28T06:41:19.683Z,100.00
2019-01-28T06:44:09.441Z,100.00
2019-01-28T06:46:59.217Z,100.00
2019-01-28T06:49:48.831Z,100.00
2019-01-28T06:52:38.483Z,100.00
2019-01-28T06:55:28.379Z,100.00
2019-01-28T06:58:18.112Z,100.00
2019-01-28T07:01:07.908Z,100.00
2019-01-28T07:03:57.706Z,100.00
2019-01-28T07:06:47.820Z,100.00
2019-01-28T07:09:37.741Z,100.00
2019-01-28T07:12:27.532Z,100.00
2019-01-28T07:18:18.469Z,100.00
2019-01-28T07:21:08.227Z,100.00
2019-01-28T07:23:57.997Z,100.00
2019-01-28T07:29:39.607Z,100.00
2019-01-28T07:32:22.062Z,100.00
2019-01-28T07:35:12.648Z,100.00
2019-01-28T07:38:02.271Z,100.00
2019-01-28T07:40:51.897Z,100.00
2019-01-28T07:46:37.658Z,100.00
2019-01-28T08:18:20.936Z,100.00
2019-01-28T08:41:59.971Z,100.00
2019-01-28T08:50:46.157Z,100.00
2019-01-28T08:56:28.366Z,100.00
2019-01-28T09:02:33.774Z,100.00
2019-01-28T09:11:21.671Z,100.00
2019-01-28T09:17:07.363Z,100.00
2019-01-28T09:19:57.091Z,100.00
2019-01-28T09:25:44.070Z,100.00
2019-01-28T09:28:33.820Z,100.00
2019-01-28T09:34:09.550Z,100.00
2019-01-28T09:42:44.873Z,100.00
2019-01-28T09:48:33.942Z,100.00
2019-01-28T09:57:11.099Z,100.00
2019-01-28T10:00:01.111Z,100.00
2019-01-28T10:05:40.303Z,100.00
2019-01-28T10:08:30.197Z,100.00
2019-01-28T10:11:19.814Z,100.00
2019-01-28T10:14:09.450Z,100.00
2019-01-28T10:16:59.375Z,100.00
2019-01-28T10:19:49.008Z,100.00
2019-01-28T10:22:38.666Z,100.00
2019-01-28T10:25:28.389Z,100.00
2019-01-28T10:28:18.131Z,100.00
2019-01-28T10:31:07.880Z,100.00
2019-01-28T10:33:50.391Z,100.00
2019-01-28T10:36:40.029Z,100.00
2019-01-28T10:40:07.135Z,100.00
2019-01-28T10:42:57.030Z,100.00
2019-01-28T10:45:47.867Z,100.00
2019-01-28T10:48:35.386Z,100.00
2019-01-28T10:51:23.051Z,100.00
2019-01-28T10:54:12.666Z,100.00
2019-01-28T10:57:02.302Z,100.00
2019-01-28T11:00:28.457Z,100.00
2019-01-28T11:03:55.034Z,100.00
2019-01-28T11:06:44.945Z,100.00
2019-01-28T11:09:34.612Z,100.00
2019-01-28T11:12:48.993Z,100.00
2019-01-28T11:15:38.616Z,100.00
2019-01-28T11:19:05.211Z,100.00
2019-01-28T11:21:54.867Z,100.00
2019-01-28T11:24:46.539Z,100.00
2019-01-28T11:27:36.192Z,100.00
2019-01-28T11:30:49.008Z,100.00
2019-01-28T11:33:31.018Z,100.00
2019-01-28T11:36:20.756Z,100.00
2019-01-28T11:39:50.869Z,100.00
2019-01-28T11:42:40.524Z,100.00
2019-01-28T11:46:10.882Z,98.05
2019-01-28T11:53:34.611Z,89.10
2019-01-28T11:56:24.600Z,86.21
2019-01-28T11:59:15.190Z,85.14
2019-01-28T12:02:05.966Z,84.39
2019-01-28T12:04:55.911Z,82.52
2019-01-28T12:07:45.972Z,82.38
2019-01-28T20:08:43.450Z,100.00
2019-01-28T20:11:13.869Z,89.83
2019-01-28T20:13:43.862Z,93.43
2019-01-28T20:16:13.867Z,100.00
2019-01-28T20:18:43.957Z,100.00
2019-01-28T20:21:14.348Z,100.00
2019-01-28T20:23:45.129Z,100.00
2019-01-28T20:26:15.406Z,100.00
2019-01-28T20:28:45.729Z,100.00
2019-01-28T20:31:15.886Z,100.00
2019-01-28T20:33:46.253Z,100.00
2019-01-28T20:36:16.349Z,100.00
2019-01-28T20:38:46.742Z,100.00
2019-01-28T20:41:16.838Z,100.00
2019-01-28T20:43:46.831Z,100.00
2019-01-28T20:46:17.111Z,81.13
2019-01-28T20:48:47.111Z,78.75
2019-01-28T20:51:17.675Z,76.91
2019-01-28T20:53:48.136Z,75.37
2019-01-28T20:56:18.299Z,74.54
2019-01-28T20:58:48.313Z,73.77
2019-01-28T21:01:18.450Z,73.31
2019-01-28T21:03:48.531Z,72.96
2019-01-28T21:06:18.772Z,72.98
2019-01-28T21:08:48.911Z,72.49
2019-01-28T21:11:19.038Z,72.54
2019-01-28T21:13:49.273Z,72.23
2019-01-28T21:16:19.830Z,71.58
2019-01-28T21:18:50.181Z,70.84
2019-01-28T21:21:20.321Z,70.16
2019-01-28T21:23:50.475Z,69.44
2019-01-28T21:26:20.826Z,68.76
2019-01-28T21:28:50.981Z,68.06
2019-01-28T21:31:21.145Z,67.42
2019-01-28T21:33:51.304Z,66.87
2019-01-28T21:36:40.300Z,66.41
2019-01-28T21:39:14.090Z,65.99
2019-01-28T21:41:44.241Z,65.61
2019-01-28T21:44:14.309Z,65.32
2019-01-28T21:46:44.393Z,65.22
2019-01-28T21:49:14.838Z,65.14
2019-01-28T21:51:50.407Z,65.02
2019-01-28T21:54:16.932Z,64.91
2019-01-28T21:56:46.998Z,64.76
2019-01-28T21:59:17.333Z,64.68
2019-01-28T22:01:47.730Z,64.55
2019-01-28T22:04:17.817Z,64.48
2019-01-28T22:06:48.063Z,64.39
2019-01-28T22:09:18.061Z,64.32
2019-01-28T22:11:48.061Z,64.25
2019-01-28T22:14:18.507Z,64.16
2019-01-28T22:16:48.516Z,64.11
2019-01-28T22:19:18.616Z,64.04
2019-01-28T22:21:49.249Z,63.98
2019-01-28T22:24:19.699Z,63.92
2019-01-28T22:26:49.936Z,63.88
2019-01-28T22:29:20.025Z,63.85
2019-01-28T22:31:50.307Z,63.80
2019-01-28T22:34:20.406Z,63.80
2019-01-28T22:36:50.421Z,63.79
2019-01-28T22:39:20.437Z,63.77
2019-01-28T22:41:50.449Z,63.79
2019-01-28T22:44:20.613Z,63.75
2019-01-28T22:46:50.603Z,63.77
2019-01-28T22:49:20.971Z,63.72
2019-01-28T22:51:51.603Z,63.69
2019-01-28T22:54:21.716Z,63.65
2019-01-28T22:56:51.792Z,63.63
2019-01-28T22:59:21.816Z,63.69
2019-01-28T23:01:51.899Z,63.76
2019-01-28T23:04:22.060Z,63.79
2019-01-28T23:06:52.240Z,63.81
2019-01-28T23:09:22.245Z,63.86
2019-01-28T23:11:52.245Z,73.42
2019-01-28T23:14:22.331Z,79.44
2019-01-28T23:16:52.344Z,83.40
2019-01-28T23:19:22.359Z,86.67
2019-01-28T23:21:52.373Z,89.00
2019-01-28T23:24:22.775Z,90.41
2019-01-28T23:26:53.169Z,93.60
2019-01-28T23:29:23.276Z,96.50
2019-01-28T23:31:53.381Z,99.44
2019-01-28T23:34:23.394Z,100.00
2019-01-28T23:36:53.401Z,100.00
2019-01-28T23:39:23.414Z,100.00
2019-01-28T23:41:53.498Z,100.00
2019-01-28T23:44:23.661Z,100.00
2019-01-28T23:46:54.066Z,100.00
2019-01-28T23:49:24.466Z,100.00
2019-01-28T23:51:54.747Z,100.00
2019-01-28T23:54:24.770Z,100.00
2019-01-28T23:56:54.789Z,100.00
2019-01-28T23:59:25.234Z,100.00
